Terminal Aerodrome Forecast
Issued by NWS

Home | Current Version | Previous Version | Text Only | Print | Product List | Glossary On
Versions: 1 2 3 4 5 6 7 8 9 10 11 12 13 14 15 16 17 18 19 20 21 22 23 24 25 26 27
933
FTUS43 KLSX 071729
TAFUIN
TAF
KUIN 071729Z 0718/0818 27016G22KT P6SM BKN120
     FM072000 29018G28KT P6SM SCT050 BKN120
     FM080300 30015KT P6SM OVC040
     FM080600 30016G26KT P6SM -SHSN BKN025 OVC040=

USA.gov is the U.S. government's official web portal to all federal, state and local government web resources and services.